Time;durP1;ratioP1;P1;durP2;ratioP2;P2;SDS_P1;SDS_P2;PMS_P1;PMS_P2;Temp;Humidity;BMP_temperature;BMP_pressure;BME280_temperature;BME280_humidity;BME280_pressure;Samples;Min_cycle;Max_cycle;Signal;HPM_P1;HPM_P2
2021/03/18 07:33:14;;;;;;;16.30;9.08;;;;;;;6.06;68.22;98347.07;1853478;77;22163;-65
2021/03/18 07:35:43;;;;;;;23.65;8.23;;;;;;;6.09;67.74;98353.95;1758949;81;21573;-65
2021/03/18 07:38:10;;;;;;;22.22;8.63;;;;;;;6.07;66.82;98351.77;1790094;80;21146;-64
2021/03/18 07:40:38;;;;;;;17.57;8.25;;;;;;;5.97;66.89;98353.28;1758898;81;21292;-66
2021/03/18 07:43:07;;;;;;;18.40;8.20;;;;;;;5.92;66.28;98356.56;1758992;81;21174;-65
2021/03/18 07:45:36;;;;;;;17.25;7.72;;;;;;;5.86;66.13;98354.33;1758689;81;21178;-66
2021/03/18 07:48:06;;;;;;;13.60;8.05;;;;;;;5.78;66.38;98355.03;1729953;81;21292;-64
2021/03/18 07:50:39;;;;;;;15.70;6.75;;;;;;;5.76;66.88;98363.09;1729856;81;21552;-67
2021/03/18 07:53:12;;;;;;;15.48;7.15;;;;;;;5.77;65.62;98356.70;1730431;81;21331;-65
2021/03/18 07:55:40;;;;;;;21.93;7.87;;;;;;;5.72;65.59;98364.70;1758953;81;21158;-65
2021/03/18 07:58:08;;;;;;;21.52;7.90;;;;;;;5.65;65.33;98357.33;1729481;81;21292;-66
2021/03/18 08:00:43;;;;;;;14.18;7.40;;;;;;;5.67;65.31;98348.38;1758844;81;21592;-65
2021/03/18 08:03:28;;;;;;;22.65;6.45;;;;;;;5.64;65.00;98359.42;1758866;81;21150;-64
2021/03/18 08:06:00;;;;;;;15.60;6.80;;;;;;;5.64;65.03;98362.41;1758667;81;21308;-65
2021/03/18 08:08:37;;;;;;;16.60;8.45;;;;;;;5.62;65.31;98360.22;1758930;81;21162;-65
2021/03/18 08:11:20;;;;;;;14.45;7.33;;;;;;;5.70;65.34;98358.71;1758853;81;23175;-65
2021/03/18 08:13:48;;;;;;;18.17;7.62;;;;;;;5.76;65.75;98355.41;1758940;81;21154;-65
2021/03/18 08:16:31;;;;;;;11.83;6.45;;;;;;;5.79;65.96;98347.36;1758642;81;21304;-65
2021/03/18 08:19:04;;;;;;;17.02;5.95;;;;;;;5.80;66.13;98355.50;1758964;81;21292;-64
2021/03/18 08:21:46;;;;;;;15.53;6.53;;;;;;;5.71;66.11;98352.75;1758706;81;21146;-64
2021/03/18 08:24:33;;;;;;;15.53;6.83;;;;;;;5.67;66.12;98359.91;1758656;81;21142;-64
2021/03/18 08:27:05;;;;;;;17.55;6.37;;;;;;;5.70;66.32;98365.11;1758992;81;21118;-65
2021/03/18 08:29:46;;;;;;;12.75;6.25;;;;;;;5.72;66.28;98362.56;1758679;81;21134;-65
2021/03/18 08:32:30;;;;;;;18.52;7.40;;;;;;;5.72;66.49;98367.26;1732468;81;21342;-64
2021/03/18 08:35:02;;;;;;;18.65;6.83;;;;;;;5.77;66.86;98365.66;1785566;80;21522;-65
2021/03/18 08:37:38;;;;;;;;;;;;;;;5.87;66.13;98367.99;1747873;82;21304;-64
2021/03/18 08:40:28;;;;;;;14.80;6.45;;;;;;;5.92;66.03;98360.41;1723667;83;20126;-65
2021/03/18 08:43:07;;;;;;;16.90;7.15;;;;;;;5.94;65.98;98360.92;1785145;80;21332;-65
2021/03/18 08:45:39;;;;;;;14.68;6.67;;;;;;;5.98;65.74;98369.51;1784800;80;21150;-64
2021/03/18 08:48:15;;;;;;;16.00;6.72;;;;;;;5.87;65.70;98368.84;1784864;80;21146;-64
2021/03/18 08:50:48;;;;;;;18.42;6.60;;;;;;;5.91;65.49;98371.50;1747734;82;21159;-64
2021/03/18 08:53:33;;;;;;;15.63;7.08;;;;;;;5.91;65.09;98368.52;1721749;83;21187;-65
2021/03/18 08:56:03;;;;;;;14.07;6.80;;;;;;;5.76;65.37;98374.61;1721628;83;21171;-66
2021/03/18 08:58:39;;;;;;;12.88;6.65;;;;;;;5.65;66.13;98375.67;1747721;82;21213;-64
2021/03/18 09:01:14;;;;;;;16.90;8.05;;;;;;;5.71;66.50;98380.91;1744448;82;21288;-64
2021/03/18 09:03:43;;;;;;;15.15;7.72;;;;;;;5.68;67.45;98374.45;1784739;80;21150;-64
2021/03/18 09:06:11;;;;;;;17.45;8.53;;;;;;;5.62;68.24;98380.31;1784872;80;21288;-63
2021/03/18 09:08:40;;;;;;;14.15;8.33;;;;;;;5.63;69.14;98372.20;1747677;82;21147;-65
2021/03/18 09:11:08;;;;;;;14.35;8.90;;;;;;;5.61;69.60;98376.42;1721340;83;21179;-65
2021/03/18 09:13:36;;;;;;;19.40;9.33;;;;;;;5.63;69.71;98373.49;1747731;82;21151;-63
2021/03/18 09:16:05;;;;;;;21.50;8.78;;;;;;;5.60;69.98;98379.41;1784960;80;21350;-64
2021/03/18 09:18:35;;;;;;;19.65;10.08;;;;;;;5.80;69.77;98377.27;1784757;80;21150;-64
2021/03/18 09:21:09;;;;;;;20.52;9.25;;;;;;;6.09;69.37;98374.44;1784735;80;21142;-63
2021/03/18 09:23:42;;;;;;;25.43;9.48;;;;;;;6.39;68.48;98383.13;1785016;80;21138;-65
2021/03/18 09:26:14;;;;;;;16.10;9.13;;;;;;;6.55;67.96;98379.13;1784982;80;21150;-66
2021/03/18 09:28:47;;;;;;;;;;;;;;;6.50;67.06;98379.03;1750320;82;21159;-66
2021/03/18 09:31:24;;;;;;;14.28;8.43;;;;;;;6.24;67.36;98376.02;1738211;82;20390;-65
2021/03/18 09:33:55;;;;;;;16.67;9.18;;;;;;;6.07;67.88;98369.70;1784973;80;21170;-65
2021/03/18 09:36:27;;;;;;;18.90;8.20;;;;;;;5.84;68.78;98384.16;1784876;80;21150;-65
2021/03/18 09:39:12;;;;;;;16.05;8.73;;;;;;;5.78;69.04;98390.45;1785085;80;21284;-64
2021/03/18 09:41:48;;;;;;;12.70;7.00;;;;;;;5.77;68.69;98372.05;1784961;80;21557;-63
2021/03/18 09:44:21;;;;;;;11.97;6.78;;;;;;;5.70;67.99;98383.42;1748126;82;21585;-65
2021/03/18 09:47:01;;;;;;;14.18;7.97;;;;;;;5.61;67.77;98381.55;1721522;83;21183;-64
2021/03/18 09:49:39;;;;;;;18.00;9.08;;;;;;;5.69;67.89;98388.97;1747717;82;21123;-65
2021/03/18 09:52:12;;;;;;;13.03;8.30;;;;;;;5.96;67.82;98373.77;1747993;82;21380;-65
2021/03/18 09:54:40;;;;;;;20.43;8.05;;;;;;;6.22;66.81;98377.67;1784911;80;21704;-64
2021/03/18 09:57:11;;;;;;;17.07;8.35;;;;;;;6.32;65.90;98382.98;1784961;80;21284;-65
2021/03/18 09:59:39;;;;;;;26.45;9.40;;;;;;;6.33;66.05;98376.58;1784980;80;21277;-64
2021/03/18 10:02:07;;;;;;;15.23;8.05;;;;;;;6.34;66.03;98374.91;1784948;80;21292;-65
2021/03/18 10:04:41;;;;;;;20.23;9.20;;;;;;;6.18;66.29;98375.91;1784722;80;21298;-65
2021/03/18 10:07:13;;;;;;;17.67;8.50;;;;;;;6.05;66.67;98383.74;1784746;80;21162;-64
2021/03/18 10:09:46;;;;;;;15.90;7.47;;;;;;;5.94;66.22;98384.39;1784701;80;21158;-65
2021/03/18 10:12:20;;;;;;;18.55;6.53;;;;;;;5.80;64.56;98381.11;1747772;82;21163;-65
2021/03/18 10:15:05;;;;;;;14.28;7.80;;;;;;;5.75;64.32;98388.22;1721339;83;21175;-65
2021/03/18 10:17:41;;;;;;;12.78;7.20;;;;;;;5.73;64.42;98388.20;1721324;83;21127;-64
2021/03/18 10:20:19;;;;;;;19.92;7.90;;;;;;;5.69;64.56;98388.97;1747427;81;21173;-64
2021/03/18 10:23:04;;;;;;;15.60;7.55;;;;;;;5.66;65.17;98384.64;1747679;82;21162;-64
2021/03/18 10:25:35;;;;;;;17.42;9.33;;;;;;;5.72;65.34;98387.73;1747941;81;21142;-64
2021/03/18 10:28:11;;;;;;;15.18;9.23;;;;;;;5.68;66.44;98378.29;1784873;80;21158;-65
2021/03/18 10:30:46;;;;;;;22.77;10.20;;;;;;;5.66;67.27;98386.34;1747654;82;21175;-64
2021/03/18 10:33:21;;;;;;;21.48;9.88;;;;;;;5.73;67.46;98392.05;1728941;83;21312;-64
2021/03/18 10:35:58;;;;;;;18.37;10.00;;;;;;;5.74;67.79;98395.05;1787803;79;21151;-64
2021/03/18 10:38:36;;;;;;;17.40;8.63;;;;;;;5.66;68.06;98392.33;1787445;79;21154;-65
2021/03/18 10:41:09;;;;;;;17.10;9.18;;;;;;;5.57;67.83;98392.15;1787470;79;21693;-64
2021/03/18 10:43:41;;;;;;;19.10;9.65;;;;;;;5.58;68.10;98393.00;1787454;80;21139;-64
2021/03/18 10:46:12;;;;;;;12.80;8.40;;;;;;;5.74;67.67;98400.59;1787706;80;21253;-63
2021/03/18 10:48:42;;;;;;;14.73;7.72;;;;;;;5.86;66.93;98399.14;1788076;80;21167;-65
2021/03/18 10:51:15;;;;;;;17.35;8.95;;;;;;;5.91;65.50;98393.27;1787741;80;21135;-64
2021/03/18 10:53:45;;;;;;;17.30;8.88;;;;;;;5.93;65.61;98401.81;1787952;80;21267;-65
2021/03/18 10:56:24;;;;;;;18.45;8.93;;;;;;;5.91;65.42;98400.95;1787604;80;21146;-64
2021/03/18 10:58:55;;;;;;;14.18;8.00;;;;;;;5.87;65.63;98397.02;1787642;80;21576;-65
2021/03/18 11:01:27;;;;;;;19.05;8.15;;;;;;;5.84;65.66;98409.77;1787714;79;21561;-64
2021/03/18 11:04:05;;;;;;;19.45;8.05;;;;;;;5.80;65.72;98401.59;1787647;80;21703;-64
2021/03/18 11:06:36;;;;;;;17.65;7.75;;;;;;;5.73;65.56;98407.41;1787651;80;21143;-64
2021/03/18 11:09:04;;;;;;;22.98;8.13;;;;;;;5.66;64.95;98402.98;1786246;80;21126;-65
2021/03/18 11:11:33;;;;;;;14.80;8.03;;;;;;;5.54;66.17;98406.13;1787725;80;21126;-64
2021/03/18 11:14:13;;;;;;;20.65;9.53;;;;;;;5.46;66.69;98395.29;1787670;80;21289;-65
2021/03/18 11:16:42;;;;;;;13.72;8.80;;;;;;;5.40;67.34;98395.61;1787494;79;21304;-64
2021/03/18 11:19:14;;;;;;;12.43;7.80;;;;;;;5.48;67.58;98384.68;1787779;79;21273;-64
2021/03/18 11:21:44;;;;;;;;;;;;;;;5.52;66.62;98395.41;1790101;79;21150;-64
2021/03/18 11:24:16;;;;;;;10.50;7.15;;;;;;;5.49;66.18;98394.93;1787655;79;20138;-65
2021/03/18 11:26:56;;;;;;;11.73;7.12;;;;;;;5.42;66.29;98392.67;1787568;80;21119;-64
2021/03/18 11:29:36;;;;;;;12.58;7.78;;;;;;;5.31;67.17;98388.99;1787810;80;21135;-65
2021/03/18 11:32:07;;;;;;;19.45;8.90;;;;;;;5.21;67.46;98390.89;1785806;79;21577;-64
2021/03/18 11:34:38;;;;;;;12.07;8.43;;;;;;;5.22;68.71;98381.12;1819788;79;21283;-64
2021/03/18 11:37:12;;;;;;;14.75;8.48;;;;;;;5.28;69.15;98391.48;1819993;79;21158;-65
2021/03/18 11:39:41;;;;;;;14.18;8.63;;;;;;;5.37;69.52;98387.87;1819587;79;21146;-65
2021/03/18 11:42:09;;;;;;;14.10;8.28;;;;;;;5.30;69.49;98389.84;1819582;79;21143;-64
2021/03/18 11:44:38;;;;;;;16.25;8.80;;;;;;;5.24;69.40;98387.15;1819880;79;21350;-64
2021/03/18 11:47:09;;;;;;;13.75;7.03;;;;;;;5.20;68.96;98389.18;1819783;79;21249;-64
2021/03/18 11:49:41;;;;;;;14.35;7.95;;;;;;;5.21;68.88;98393.45;1819586;79;21170;-64
2021/03/18 11:52:11;;;;;;;11.85;8.03;;;;;;;5.25;68.86;98392.70;1819725;79;21106;-64
2021/03/18 11:54:40;;;;;;;13.65;8.48;;;;;;;5.28;68.74;98389.35;1819547;79;21173;-65
2021/03/18 11:57:08;;;;;;;16.20;8.50;;;;;;;5.24;69.14;98392.27;1739539;82;21268;-67
2021/03/18 11:59:36;;;;;;;12.30;7.58;;;;;;;5.21;69.00;98393.45;1796393;79;21640;-65
2021/03/18 12:02:04;;;;;;;16.95;8.48;;;;;;;5.16;69.34;98384.39;1791938;79;21170;-67
2021/03/18 12:04:32;;;;;;;12.33;7.97;;;;;;;5.17;69.88;98389.97;1757248;80;21097;-65
2021/03/18 12:07:00;;;;;;;18.50;9.50;;;;;;;5.18;70.38;98391.69;1729262;82;21182;-65
2021/03/18 12:09:30;;;;;;;15.40;9.33;;;;;;;5.15;70.72;98391.63;1787507;79;21268;-63
2021/03/18 12:11:58;;;;;;;18.40;9.23;;;;;;;5.19;70.87;98386.15;1786662;78;21354;-67
2021/03/18 12:14:26;;;;;;;16.07;9.85;;;;;;;5.23;71.01;98394.36;1776176;80;21157;-65
2021/03/18 12:16:54;;;;;;;13.50;9.48;;;;;;;5.34;71.02;98394.20;1787416;80;21391;-65
2021/03/18 12:19:23;;;;;;;16.52;8.35;;;;;;;5.38;70.88;98392.14;1787514;80;21114;-65
2021/03/18 12:21:51;;;;;;;14.90;7.60;;;;;;;5.32;71.26;98392.44;1787819;80;21312;-65
2021/03/18 12:24:19;;;;;;;10.15;6.60;;;;;;;5.30;71.27;98392.39;1787566;78;21308;-66
2021/03/18 12:26:48;;;;;;;12.23;8.10;;;;;;;5.29;71.35;98394.91;1747561;81;21146;-64
2021/03/18 12:29:17;;;;;;;13.85;8.83;;;;;;;5.19;71.51;98395.10;1723614;83;21146;-64
2021/03/18 12:31:45;;;;;;;15.10;10.05;;;;;;;5.09;71.89;98394.44;1718649;83;21321;-65
2021/03/18 12:34:13;;;;;;;16.50;9.48;;;;;;;4.98;72.50;98398.03;1785410;79;21154;-66
2021/03/18 12:36:41;;;;;;;14.30;8.58;;;;;;;4.94;72.78;98398.38;1779542;79;21167;-67
2021/03/18 12:39:10;;;;;;;15.58;7.97;;;;;;;4.92;72.92;98389.80;1783702;79;21130;-66
2021/03/18 12:41:38;;;;;;;13.15;8.50;;;;;;;4.92;73.13;98383.41;1788212;78;21276;-65
2021/03/18 12:44:06;;;;;;;12.78;8.68;;;;;;;4.87;73.30;98390.11;1783830;78;21308;-67
2021/03/18 12:46:35;;;;;;;13.95;7.45;;;;;;;4.86;73.46;98394.78;1779156;79;21281;-66
2021/03/18 12:49:07;;;;;;;12.93;7.58;;;;;;;4.88;73.23;98392.25;1779434;81;21130;-65
2021/03/18 12:51:37;;;;;;;12.03;7.33;;;;;;;4.82;73.15;98393.39;1783481;79;21166;-65
2021/03/18 12:54:06;;;;;;;14.25;7.37;;;;;;;4.78;73.20;98398.81;1783730;79;21707;-65
2021/03/18 12:56:35;;;;;;;12.10;8.48;;;;;;;4.86;73.16;98399.01;1786207;79;21147;-66
2021/03/18 12:59:03;;;;;;;18.12;7.00;;;;;;;4.94;73.01;98400.94;1783540;79;21162;-65
2021/03/18 13:01:32;;;;;;;11.55;7.10;;;;;;;5.00;72.57;98401.07;1788028;79;21150;-66
2021/03/18 13:04:01;;;;;;;11.43;6.67;;;;;;;4.97;72.27;98398.45;1783601;79;21538;-65
2021/03/18 13:06:29;;;;;;;13.98;7.05;;;;;;;4.99;72.21;98406.17;1727482;82;21231;-64
2021/03/18 13:08:57;;;;;;;11.40;6.65;;;;;;;5.01;72.18;98399.38;1780125;79;21116;-67
2021/03/18 13:11:26;;;;;;;10.00;6.30;;;;;;;5.02;72.06;98400.27;1779389;79;21157;-65
2021/03/18 13:13:54;;;;;;;15.00;6.95;;;;;;;4.98;72.17;98402.72;1779091;81;21146;-65
2021/03/18 13:16:21;;;;;;;9.85;6.35;;;;;;;5.00;72.20;98402.35;1783832;79;21727;-66
2021/03/18 13:18:50;;;;;;;13.45;6.20;;;;;;;5.05;71.92;98401.61;1787207;79;21264;-66
2021/03/18 13:21:18;;;;;;;12.60;6.30;;;;;;;5.04;71.97;98394.36;1779160;79;21161;-66
2021/03/18 13:23:48;;;;;;;12.65;6.00;;;;;;;5.05;71.37;98400.33;1779065;81;21118;-66
2021/03/18 13:26:16;;;;;;;9.00;5.58;;;;;;;5.00;71.19;98406.19;1779253;80;21277;-67
2021/03/18 13:28:44;;;;;;;10.43;5.60;;;;;;;4.99;70.61;98386.99;1779147;81;21151;-66
2021/03/18 13:31:12;;;;;;;10.88;5.78;;;;;;;4.95;70.31;98397.96;1779124;81;21312;-65
2021/03/18 13:33:42;;;;;;;7.30;4.97;;;;;;;4.89;70.94;98382.06;1784618;80;21260;-66
2021/03/18 13:36:11;;;;;;;7.72;4.90;;;;;;;4.78;71.89;98381.81;1801747;78;21280;-65
2021/03/18 13:38:38;;;;;;;8.63;5.53;;;;;;;4.69;72.49;98384.13;1806327;78;21260;-64
2021/03/18 13:41:06;;;;;;;10.38;5.10;;;;;;;4.61;73.10;98392.45;1801815;78;21115;-65
2021/03/18 13:43:34;;;;;;;9.05;4.97;;;;;;;4.56;73.49;98377.85;1793111;79;21356;-66
2021/03/18 13:46:05;;;;;;;8.85;5.25;;;;;;;4.50;73.81;98390.48;1793014;80;21304;-66
2021/03/18 13:48:34;;;;;;;7.28;4.25;;;;;;;4.40;74.42;98389.80;1792952;80;21150;-66
2021/03/18 13:51:03;;;;;;;9.55;5.22;;;;;;;4.39;74.55;98379.53;1793005;80;21149;-67
2021/03/18 13:53:31;;;;;;;7.12;4.45;;;;;;;4.34;74.78;98379.40;1792969;80;21216;-66
2021/03/18 13:56:02;;;;;;;6.50;3.90;;;;;;;4.32;75.12;98397.64;1793357;80;21687;-66
2021/03/18 13:58:30;;;;;;;6.70;4.10;;;;;;;4.32;75.05;98392.53;1793015;80;21114;-62
2021/03/18 14:01:01;;;;;;;8.05;4.15;;;;;;;4.33;75.32;98391.73;1793346;80;21157;-63
2021/03/18 14:03:30;;;;;;;8.75;4.22;;;;;;;4.35;75.44;98396.44;1793139;80;21186;-63
2021/03/18 14:05:59;;;;;;;7.12;4.10;;;;;;;4.40;75.47;98392.73;1792967;78;21204;-65
2021/03/18 14:08:28;;;;;;;6.97;4.53;;;;;;;4.31;75.59;98390.82;1805104;78;21129;-63
2021/03/18 14:10:56;;;;;;;6.85;4.78;;;;;;;4.30;75.80;98394.17;1792947;79;21115;-63
2021/03/18 14:13:25;;;;;;;7.87;4.90;;;;;;;4.33;76.02;98388.76;1794475;78;21243;-62
2021/03/18 14:15:54;;;;;;;9.38;5.25;;;;;;;4.36;75.77;98395.64;1799256;78;21133;-63
2021/03/18 14:18:23;;;;;;;8.23;4.60;;;;;;;4.33;75.87;98392.59;1801932;78;21137;-67
2021/03/18 14:20:53;;;;;;;7.35;5.15;;;;;;;4.39;75.92;98399.55;1797346;78;21130;-66
2021/03/18 14:23:22;;;;;;;11.43;5.03;;;;;;;4.36;75.99;98402.02;1797391;78;21241;-63
2021/03/18 14:25:51;;;;;;;10.08;4.75;;;;;;;4.34;76.01;98408.77;1792825;80;21142;-63
2021/03/18 14:28:18;;;;;;;6.45;4.08;;;;;;;4.31;76.07;98395.92;1802029;78;21177;-64
2021/03/18 14:30:47;;;;;;;7.95;4.60;;;;;;;4.24;76.41;98397.86;1793022;80;21181;-63
2021/03/18 14:33:15;;;;;;;7.25;4.30;;;;;;;4.17;76.91;98397.23;1791596;80;21118;-65
2021/03/18 14:35:46;;;;;;;11.10;4.55;;;;;;;4.18;77.02;98407.92;1779268;80;21264;-63
2021/03/18 14:38:14;;;;;;;10.40;5.40;;;;;;;4.10;77.38;98416.65;1779194;81;21115;-64
2021/03/18 14:40:43;;;;;;;9.88;5.67;;;;;;;4.09;77.68;98423.42;1779161;80;21304;-64
2021/03/18 14:43:14;;;;;;;8.98;5.80;;;;;;;4.14;77.81;98413.34;1779229;81;21154;-64
2021/03/18 14:45:44;;;;;;;10.68;6.22;;;;;;;4.19;77.82;98418.58;1779443;80;21158;-64
2021/03/18 14:48:15;;;;;;;8.43;5.35;;;;;;;4.18;77.91;98421.55;1779367;80;21115;-63
2021/03/18 14:50:45;;;;;;;9.03;5.60;;;;;;;4.22;77.97;98418.66;1779352;81;21170;-65
2021/03/18 14:53:18;;;;;;;7.78;5.10;;;;;;;4.25;77.96;98421.28;1779537;80;21139;-64
2021/03/18 14:55:50;;;;;;;9.95;5.53;;;;;;;4.26;78.06;98423.03;1779099;80;21134;-64
2021/03/18 14:58:20;;;;;;;;;;;;;;;4.22;78.28;98418.66;1780003;80;21146;-67
2021/03/18 15:00:51;;;;;;;9.15;4.90;;;;;;;4.21;78.49;98420.77;1779253;80;20123;-64
2021/03/18 15:03:21;;;;;;;9.68;5.12;;;;;;;4.20;78.62;98427.95;1779139;81;21166;-65
2021/03/18 15:05:49;;;;;;;10.00;5.75;;;;;;;4.23;78.70;98423.81;1783517;79;21185;-67
2021/03/18 15:08:18;;;;;;;8.15;5.50;;;;;;;4.24;78.46;98428.09;1787772;79;21151;-64
2021/03/18 15:10:48;;;;;;;8.68;5.60;;;;;;;4.17;78.51;98432.57;1787672;79;21167;-62
2021/03/18 15:13:17;;;;;;;12.43;5.67;;;;;;;4.06;78.56;98425.89;1789771;79;21727;-63
2021/03/18 15:15:46;;;;;;;8.28;6.03;;;;;;;3.98;78.94;98430.34;1788017;79;21288;-65
2021/03/18 15:18:15;;;;;;;9.03;6.03;;;;;;;3.91;79.31;98430.56;1783596;79;21103;-64
2021/03/18 15:20:49;;;;;;;10.63;6.58;;;;;;;3.87;79.68;98428.77;1791370;79;21130;-68
2021/03/18 15:23:19;;;;;;;8.70;5.97;;;;;;;3.85;79.85;98427.85;1723069;82;21183;-65
2021/03/18 15:25:48;;;;;;;9.90;6.25;;;;;;;3.82;80.17;98435.43;1784712;79;21130;-66
2021/03/18 15:28:16;;;;;;;11.05;6.72;;;;;;;3.80;80.44;98443.03;1787780;79;21519;-66
2021/03/18 15:30:45;;;;;;;11.55;7.17;;;;;;;3.85;80.75;98440.61;1783393;79;21269;-64
2021/03/18 15:33:14;;;;;;;11.90;8.83;;;;;;;3.90;80.81;98450.12;1782559;79;21253;-70
2021/03/18 15:35:47;;;;;;;13.98;9.10;;;;;;;3.86;81.04;98443.19;1785691;80;21114;-62
2021/03/18 15:38:17;;;;;;;15.10;9.13;;;;;;;3.76;81.56;98453.09;1784628;80;21232;-63
2021/03/18 15:40:46;;;;;;;13.28;8.73;;;;;;;3.75;81.83;98453.93;1784887;80;21712;-62
2021/03/18 15:43:14;;;;;;;13.22;8.50;;;;;;;3.74;81.92;98453.06;1784796;80;21154;-63
2021/03/18 15:45:44;;;;;;;11.80;7.17;;;;;;;3.77;81.71;98458.67;1784845;80;21170;-60
2021/03/18 15:48:14;;;;;;;11.40;7.35;;;;;;;3.73;81.81;98453.02;1784637;80;21564;-65
2021/03/18 15:50:45;;;;;;;13.62;7.65;;;;;;;3.69;81.92;98454.20;1784616;80;21161;-62
2021/03/18 15:53:15;;;;;;;11.18;7.70;;;;;;;3.69;82.09;98454.20;1784609;80;21126;-64
2021/03/18 15:55:47;;;;;;;12.45;8.33;;;;;;;3.67;82.14;98448.59;1785023;80;21307;-61
2021/03/18 15:58:18;;;;;;;12.50;8.73;;;;;;;3.59;82.30;98448.37;1785045;80;21569;-63
2021/03/18 16:00:49;;;;;;;13.60;9.48;;;;;;;3.53;82.49;98455.81;1785146;80;21160;-65
2021/03/18 16:03:18;;;;;;;12.93;8.40;;;;;;;3.47;82.67;98458.19;1784959;80;21308;-63
2021/03/18 16:05:47;;;;;;;13.32;7.42;;;;;;;3.47;82.89;98463.30;1785076;80;21142;-59
2021/03/18 16:08:16;;;;;;;13.25;7.55;;;;;;;3.50;82.90;98460.83;1784751;80;21185;-65
2021/03/18 16:10:45;;;;;;;10.90;7.75;;;;;;;3.48;82.89;98467.56;1784732;80;21099;-61
2021/03/18 16:13:14;;;;;;;13.03;7.78;;;;;;;3.49;83.06;98457.84;1784649;80;21288;-63
2021/03/18 16:15:43;;;;;;;10.90;7.42;;;;;;;3.45;83.03;98459.41;1784884;80;21543;-63
2021/03/18 16:18:12;;;;;;;11.33;7.97;;;;;;;3.36;83.11;98465.52;1784936;80;21165;-64
2021/03/18 16:20:40;;;;;;;9.93;6.58;;;;;;;3.29;83.55;98459.77;1784936;80;21294;-62
2021/03/18 16:23:14;;;;;;;10.48;7.20;;;;;;;3.24;83.66;98464.71;1784734;80;21327;-61
2021/03/18 16:25:46;;;;;;;9.43;5.85;;;;;;;3.26;84.00;98465.63;1784674;80;21154;-63
2021/03/18 16:28:17;;;;;;;12.75;8.53;;;;;;;3.28;84.10;98461.84;1784828;80;21158;-64
2021/03/18 16:30:46;;;;;;;14.98;9.35;;;;;;;3.30;84.12;98465.72;1785018;80;21154;-62
2021/03/18 16:33:16;;;;;;;14.15;9.10;;;;;;;3.35;84.17;98466.73;1784885;80;21719;-63
2021/03/18 16:35:51;;;;;;;13.03;9.05;;;;;;;3.37;84.14;98471.06;1788577;80;21105;-66
2021/03/18 16:38:20;;;;;;;14.95;9.53;;;;;;;3.38;84.23;98470.65;1755584;80;21158;-73
2021/03/18 16:40:50;;;;;;;15.45;9.40;;;;;;;3.38;84.31;98470.65;1785443;80;21284;-65
2021/03/18 16:43:18;;;;;;;14.05;8.90;;;;;;;3.38;84.25;98465.55;1787440;80;21177;-71
2021/03/18 16:45:47;;;;;;;13.03;8.90;;;;;;;3.43;84.46;98472.94;1787737;80;21651;-69
2021/03/18 16:48:17;;;;;;;15.03;10.20;;;;;;;3.45;84.29;98472.16;1787512;80;21118;-71
2021/03/18 16:50:47;;;;;;;17.12;9.93;;;;;;;3.41;84.26;98462.70;1787893;80;21615;-69
2021/03/18 16:53:16;;;;;;;17.15;10.23;;;;;;;3.34;84.32;98472.25;1787695;80;21137;-70
2021/03/18 16:55:44;;;;;;;19.73;10.72;;;;;;;3.32;84.49;98473.02;1787887;78;21143;-63
2021/03/18 16:58:12;;;;;;;17.98;11.55;;;;;;;3.32;84.63;98467.92;1787671;80;21163;-64
2021/03/18 17:00:43;;;;;;;19.25;10.18;;;;;;;3.34;84.70;98473.52;1787790;80;21274;-67
2021/03/18 17:03:12;;;;;;;18.62;10.88;;;;;;;3.35;84.73;98469.28;1787942;80;21167;-67
2021/03/18 17:05:44;;;;;;;13.90;9.33;;;;;;;3.35;84.71;98466.73;1787761;80;21144;-70
2021/03/18 17:08:12;;;;;;;;;;;;;;;3.29;84.75;98470.38;1790478;80;21590;-64
2021/03/18 17:10:48;;;;;;;13.48;8.50;;;;;;;3.28;84.71;98480.96;1787729;78;20134;-65
2021/03/18 17:13:18;;;;;;;15.10;9.63;;;;;;;3.26;84.67;98473.28;1787716;80;21543;-65
2021/03/18 17:15:47;;;;;;;15.43;9.38;;;;;;;3.22;84.79;98477.81;1787710;80;21536;-66
2021/03/18 17:18:16;;;;;;;12.88;7.85;;;;;;;3.16;84.99;98477.63;1787300;80;21339;-64
2021/03/18 17:20:44;;;;;;;12.20;7.30;;;;;;;3.21;85.03;98485.44;1787631;80;21161;-68
2021/03/18 17:23:16;;;;;;;9.58;6.42;;;;;;;3.23;85.02;98486.33;1787670;80;21134;-67
2021/03/18 17:25:45;;;;;;;11.38;6.75;;;;;;;3.22;84.89;98479.09;1787801;80;21118;-65
2021/03/18 17:28:14;;;;;;;9.65;7.33;;;;;;;3.22;85.16;98487.16;1787786;80;21162;-71
2021/03/18 17:30:45;;;;;;;11.30;7.42;;;;;;;3.28;85.11;98483.92;1787779;80;21165;-66
2021/03/18 17:33:19;;;;;;;10.90;7.45;;;;;;;3.28;85.01;98487.34;1787720;80;21162;-72
2021/03/18 17:35:47;;;;;;;11.70;8.28;;;;;;;3.24;85.20;98487.66;1787605;80;21867;-70
2021/03/18 17:38:15;;;;;;;12.58;8.68;;;;;;;3.25;85.11;98483.00;1755384;80;21264;-64
2021/03/18 17:40:44;;;;;;;14.33;8.20;;;;;;;3.23;84.99;98481.22;1787681;80;21292;-65
2021/03/18 17:43:15;;;;;;;11.75;7.72;;;;;;;3.17;85.16;98491.23;1792245;79;21118;-66
2021/03/18 17:45:48;;;;;;;12.05;7.95;;;;;;;3.15;85.40;98483.53;1732770;82;21159;-62
2021/03/18 17:48:19;;;;;;;16.20;8.90;;;;;;;3.17;85.45;98487.00;1729800;82;21167;-66
2021/03/18 17:50:50;;;;;;;12.58;8.73;;;;;;;3.18;85.45;98484.03;1795216;79;21123;-64
2021/03/18 17:53:20;;;;;;;15.53;9.75;;;;;;;3.14;85.54;98477.98;1791839;79;21183;-64
2021/03/18 17:55:49;;;;;;;12.95;9.30;;;;;;;3.08;85.64;98479.45;1787259;80;21154;-64
2021/03/18 17:58:17;;;;;;;14.98;10.32;;;;;;;3.04;85.86;98487.42;1787646;80;21194;-63
2021/03/18 18:00:45;;;;;;;14.65;10.18;;;;;;;2.97;86.13;98488.03;1787035;80;21355;-65
2021/03/18 18:03:15;;;;;;;14.20;9.18;;;;;;;2.91;86.39;98481.47;1786722;80;21158;-66
2021/03/18 18:05:44;;;;;;;12.68;9.58;;;;;;;2.96;86.83;98485.03;1720556;83;21142;-64
2021/03/18 18:08:13;;;;;;;13.58;9.13;;;;;;;3.02;86.79;98485.22;1787478;80;21165;-66
2021/03/18 18:10:41;;;;;;;12.78;7.85;;;;;;;3.10;86.74;98487.61;1724651;82;21311;-64
2021/03/18 18:13:10;;;;;;;13.00;8.10;;;;;;;3.09;86.61;98485.89;1796046;79;21604;-63
2021/03/18 18:15:41;;;;;;;11.38;7.78;;;;;;;3.07;86.75;98484.97;1791324;79;21149;-66
2021/03/18 18:18:10;;;;;;;13.43;8.60;;;;;;;3.06;86.80;98485.80;1792066;79;21272;-65
2021/03/18 18:20:39;;;;;;;11.20;7.33;;;;;;;3.08;86.87;98484.17;1791883;79;21149;-66
2021/03/18 18:23:08;;;;;;;12.00;8.08;;;;;;;3.13;86.75;98479.20;1787426;79;21150;-58
2021/03/18 18:25:36;;;;;;;13.93;8.78;;;;;;;3.13;86.82;98487.73;1787670;80;21107;-62
2021/03/18 18:28:05;;;;;;;12.60;8.73;;;;;;;3.13;86.76;98482.64;1787621;79;21154;-59
2021/03/18 18:30:36;;;;;;;12.50;8.85;;;;;;;3.13;86.97;98486.46;1787498;80;21146;-65
2021/03/18 18:33:06;;;;;;;12.80;8.78;;;;;;;3.18;87.04;98488.75;1787749;80;21277;-64
2021/03/18 18:35:35;;;;;;;14.45;8.78;;;;;;;3.24;87.04;98489.35;1790137;80;21162;-61
2021/03/18 18:38:04;;;;;;;12.60;7.50;;;;;;;3.26;86.91;98482.20;1792957;80;21143;-65
2021/03/18 18:40:35;;;;;;;14.00;7.90;;;;;;;3.18;87.06;98480.20;1792945;79;21111;-65
2021/03/18 18:43:05;;;;;;;13.88;7.65;;;;;;;3.10;87.26;98487.61;1793149;80;21585;-63
2021/03/18 18:45:37;;;;;;;11.10;8.10;;;;;;;3.07;87.56;98484.97;1793197;79;21277;-63
2021/03/18 18:48:27;;;;;;;13.05;8.05;;;;;;;3.10;87.62;98487.61;1793425;80;21166;-64
2021/03/18 18:50:55;;;;;;;12.47;7.87;;;;;;;3.15;87.72;98484.80;1704990;84;21157;-64
2021/03/18 18:53:26;;;;;;;11.70;8.20;;;;;;;3.19;87.50;98490.47;1701687;84;21201;-65
2021/03/18 18:55:54;;;;;;;12.28;7.67;;;;;;;3.15;87.48;98487.35;1705014;83;21307;-66
2021/03/18 18:58:22;;;;;;;10.13;7.15;;;;;;;3.10;87.58;98490.16;1705265;83;21584;-63
2021/03/18 19:00:51;;;;;;;12.75;8.08;;;;;;;3.04;87.83;98484.87;1705015;83;21122;-65
2021/03/18 19:03:19;;;;;;;11.48;7.87;;;;;;;2.99;88.00;98487.27;1675296;84;21311;-66
2021/03/18 19:05:47;;;;;;;13.00;8.03;;;;;;;2.92;88.33;98487.01;1704990;84;21177;-63
2021/03/18 19:08:17;;;;;;;12.15;8.03;;;;;;;2.90;88.64;98480.61;1705166;84;21532;-65
2021/03/18 19:10:46;;;;;;;10.45;7.62;;;;;;;2.95;88.74;98488.38;1704059;84;21360;-65
2021/03/18 19:13:14;;;;;;;11.97;7.00;;;;;;;3.02;88.66;98492.45;1704266;84;21174;-64
2021/03/18 19:15:45;;;;;;;10.70;7.60;;;;;;;3.08;88.56;98490.55;1703422;83;21145;-72
2021/03/18 19:18:13;;;;;;;11.90;7.60;;;;;;;3.15;88.43;98496.69;1699366;84;21445;-71
2021/03/18 19:20:44;;;;;;;11.08;7.22;;;;;;;3.16;88.23;98486.55;1686590;84;21156;-72
2021/03/18 19:23:15;;;;;;;11.50;7.00;;;;;;;3.16;88.39;98484.00;1688963;83;21599;-70
2021/03/18 19:25:45;;;;;;;12.20;7.65;;;;;;;3.17;88.14;98487.00;1688117;84;21264;-72